sensor_id;sensor_type;location;lat;lon;timestamp;P1;durP1;ratioP1;P2;durP2;ratioP2
7833;SDS011;3962;42.696;23.354;2022-12-29T00:02:01;39.23;;;20.33;;
7833;SDS011;3962;42.696;23.354;2022-12-29T00:04:28;63.27;;;28.00;;
7833;SDS011;3962;42.696;23.354;2022-12-29T00:06:55;58.83;;;28.10;;
7833;SDS011;3962;42.696;23.354;2022-12-29T00:09:22;51.43;;;26.53;;
7833;SDS011;3962;42.696;23.354;2022-12-29T00:11:48;49.27;;;24.37;;
7833;SDS011;3962;42.696;23.354;2022-12-29T00:14:16;37.47;;;22.27;;
7833;SDS011;3962;42.696;23.354;2022-12-29T00:17:02;42.70;;;22.13;;
7833;SDS011;3962;42.696;23.354;2022-12-29T00:19:29;38.53;;;21.53;;
7833;SDS011;3962;42.696;23.354;2022-12-29T00:22:13;37.93;;;22.00;;
7833;SDS011;3962;42.696;23.354;2022-12-29T00:24:58;37.83;;;22.10;;
7833;SDS011;3962;42.696;23.354;2022-12-29T00:27:43;34.60;;;19.73;;
7833;SDS011;3962;42.696;23.354;2022-12-29T00:30:27;36.30;;;21.23;;
7833;SDS011;3962;42.696;23.354;2022-12-29T00:33:13;45.07;;;22.60;;
7833;SDS011;3962;42.696;23.354;2022-12-29T00:36:00;40.27;;;22.80;;
7833;SDS011;3962;42.696;23.354;2022-12-29T00:38:30;48.60;;;24.97;;
7833;SDS011;3962;42.696;23.354;2022-12-29T00:41:16;40.93;;;22.87;;
7833;SDS011;3962;42.696;23.354;2022-12-29T00:44:00;39.80;;;22.00;;
7833;SDS011;3962;42.696;23.354;2022-12-29T00:46:35;42.30;;;23.43;;
7833;SDS011;3962;42.696;23.354;2022-12-29T00:49:05;36.77;;;22.43;;
7833;SDS011;3962;42.696;23.354;2022-12-29T00:51:51;36.90;;;21.10;;
7833;SDS011;3962;42.696;23.354;2022-12-29T00:54:18;40.83;;;21.07;;
7833;SDS011;3962;42.696;23.354;2022-12-29T00:56:45;31.90;;;18.37;;
7833;SDS011;3962;42.696;23.354;2022-12-29T00:59:12;27.53;;;19.10;;
7833;SDS011;3962;42.696;23.354;2022-12-29T01:01:39;32.53;;;19.87;;
7833;SDS011;3962;42.696;23.354;2022-12-29T01:04:08;31.13;;;19.27;;
7833;SDS011;3962;42.696;23.354;2022-12-29T01:06:35;30.30;;;18.50;;
7833;SDS011;3962;42.696;23.354;2022-12-29T01:09:04;29.73;;;18.27;;
7833;SDS011;3962;42.696;23.354;2022-12-29T01:11:48;31.37;;;18.77;;
7833;SDS011;3962;42.696;23.354;2022-12-29T01:14:16;23.33;;;16.00;;
7833;SDS011;3962;42.696;23.354;2022-12-29T01:16:43;27.77;;;18.10;;
7833;SDS011;3962;42.696;23.354;2022-12-29T01:19:12;27.53;;;17.17;;
7833;SDS011;3962;42.696;23.354;2022-12-29T01:21:40;25.00;;;16.47;;
7833;SDS011;3962;42.696;23.354;2022-12-29T01:24:06;29.40;;;18.30;;
7833;SDS011;3962;42.696;23.354;2022-12-29T01:26:33;29.30;;;17.13;;
7833;SDS011;3962;42.696;23.354;2022-12-29T01:29:00;28.77;;;17.27;;
7833;SDS011;3962;42.696;23.354;2022-12-29T01:31:27;27.43;;;17.60;;
7833;SDS011;3962;42.696;23.354;2022-12-29T01:33:54;27.13;;;15.83;;
7833;SDS011;3962;42.696;23.354;2022-12-29T01:36:23;27.33;;;16.40;;
7833;SDS011;3962;42.696;23.354;2022-12-29T01:38:50;26.77;;;16.57;;
7833;SDS011;3962;42.696;23.354;2022-12-29T01:41:17;25.23;;;16.43;;
7833;SDS011;3962;42.696;23.354;2022-12-29T01:43:45;28.30;;;17.20;;
7833;SDS011;3962;42.696;23.354;2022-12-29T01:46:15;28.63;;;16.67;;
7833;SDS011;3962;42.696;23.354;2022-12-29T01:48:49;25.00;;;16.47;;
7833;SDS011;3962;42.696;23.354;2022-12-29T01:51:22;28.73;;;18.57;;
7833;SDS011;3962;42.696;23.354;2022-12-29T01:53:51;31.17;;;16.83;;
7833;SDS011;3962;42.696;23.354;2022-12-29T01:56:21;29.30;;;17.73;;
7833;SDS011;3962;42.696;23.354;2022-12-29T01:59:01;29.80;;;18.03;;
7833;SDS011;3962;42.696;23.354;2022-12-29T02:01:32;28.17;;;18.40;;
7833;SDS011;3962;42.696;23.354;2022-12-29T02:03:59;28.87;;;17.27;;
7833;SDS011;3962;42.696;23.354;2022-12-29T02:06:29;33.07;;;18.30;;
7833;SDS011;3962;42.696;23.354;2022-12-29T02:09:00;31.20;;;18.23;;
7833;SDS011;3962;42.696;23.354;2022-12-29T02:11:27;24.83;;;16.80;;
7833;SDS011;3962;42.696;23.354;2022-12-29T02:13:56;29.60;;;17.50;;
7833;SDS011;3962;42.696;23.354;2022-12-29T02:16:29;26.13;;;16.43;;
7833;SDS011;3962;42.696;23.354;2022-12-29T02:19:19;28.57;;;18.50;;
7833;SDS011;3962;42.696;23.354;2022-12-29T02:22:16;26.63;;;17.37;;
7833;SDS011;3962;42.696;23.354;2022-12-29T02:27:53;29.20;;;18.43;;
7833;SDS011;3962;42.696;23.354;2022-12-29T02:33:28;27.33;;;17.43;;
7833;SDS011;3962;42.696;23.354;2022-12-29T02:36:06;30.73;;;18.53;;
7833;SDS011;3962;42.696;23.354;2022-12-29T02:38:42;31.53;;;17.60;;
7833;SDS011;3962;42.696;23.354;2022-12-29T02:41:19;28.53;;;18.37;;
7833;SDS011;3962;42.696;23.354;2022-12-29T02:43:54;27.90;;;17.30;;
7833;SDS011;3962;42.696;23.354;2022-12-29T02:46:28;27.00;;;17.57;;
7833;SDS011;3962;42.696;23.354;2022-12-29T02:49:04;30.70;;;18.33;;
7833;SDS011;3962;42.696;23.354;2022-12-29T02:51:39;29.33;;;17.30;;
7833;SDS011;3962;42.696;23.354;2022-12-29T02:54:10;31.17;;;18.90;;
7833;SDS011;3962;42.696;23.354;2022-12-29T02:56:54;31.77;;;17.07;;
7833;SDS011;3962;42.696;23.354;2022-12-29T02:59:21;31.07;;;19.23;;
7833;SDS011;3962;42.696;23.354;2022-12-29T03:01:55;27.90;;;18.43;;
7833;SDS011;3962;42.696;23.354;2022-12-29T03:04:44;30.57;;;19.07;;
7833;SDS011;3962;42.696;23.354;2022-12-29T03:07:28;32.37;;;19.00;;
7833;SDS011;3962;42.696;23.354;2022-12-29T03:10:04;27.63;;;17.87;;
7833;SDS011;3962;42.696;23.354;2022-12-29T03:12:42;28.43;;;17.47;;
7833;SDS011;3962;42.696;23.354;2022-12-29T03:15:33;30.23;;;17.53;;
7833;SDS011;3962;42.696;23.354;2022-12-29T03:18:25;29.40;;;17.50;;
7833;SDS011;3962;42.696;23.354;2022-12-29T03:21:00;29.10;;;18.43;;
7833;SDS011;3962;42.696;23.354;2022-12-29T03:23:31;36.87;;;18.43;;
7833;SDS011;3962;42.696;23.354;2022-12-29T03:26:01;31.37;;;18.47;;
7833;SDS011;3962;42.696;23.354;2022-12-29T03:28:35;27.17;;;17.07;;
7833;SDS011;3962;42.696;23.354;2022-12-29T03:31:04;26.70;;;17.60;;
7833;SDS011;3962;42.696;23.354;2022-12-29T03:33:35;29.60;;;18.03;;
7833;SDS011;3962;42.696;23.354;2022-12-29T03:36:05;29.47;;;17.07;;
7833;SDS011;3962;42.696;23.354;2022-12-29T03:38:35;28.33;;;18.20;;
7833;SDS011;3962;42.696;23.354;2022-12-29T03:41:09;31.93;;;19.40;;
7833;SDS011;3962;42.696;23.354;2022-12-29T03:43:39;33.77;;;19.30;;
7833;SDS011;3962;42.696;23.354;2022-12-29T03:46:07;33.73;;;21.33;;
7833;SDS011;3962;42.696;23.354;2022-12-29T03:48:33;33.20;;;20.27;;
7833;SDS011;3962;42.696;23.354;2022-12-29T03:51:02;31.13;;;19.83;;
7833;SDS011;3962;42.696;23.354;2022-12-29T03:53:29;33.67;;;20.37;;
7833;SDS011;3962;42.696;23.354;2022-12-29T03:55:56;36.37;;;19.63;;
7833;SDS011;3962;42.696;23.354;2022-12-29T03:58:23;35.53;;;21.10;;
7833;SDS011;3962;42.696;23.354;2022-12-29T04:00:49;41.07;;;23.07;;
7833;SDS011;3962;42.696;23.354;2022-12-29T04:03:16;37.87;;;23.07;;
7833;SDS011;3962;42.696;23.354;2022-12-29T04:05:44;35.07;;;20.77;;
7833;SDS011;3962;42.696;23.354;2022-12-29T04:08:11;37.20;;;21.43;;
7833;SDS011;3962;42.696;23.354;2022-12-29T04:10:38;38.43;;;22.63;;
7833;SDS011;3962;42.696;23.354;2022-12-29T04:13:05;33.93;;;20.77;;
7833;SDS011;3962;42.696;23.354;2022-12-29T04:15:31;35.67;;;20.37;;
7833;SDS011;3962;42.696;23.354;2022-12-29T04:17:58;34.47;;;19.77;;
7833;SDS011;3962;42.696;23.354;2022-12-29T04:20:25;33.17;;;19.00;;
7833;SDS011;3962;42.696;23.354;2022-12-29T04:23:10;33.80;;;21.13;;
7833;SDS011;3962;42.696;23.354;2022-12-29T04:25:37;38.43;;;23.17;;
7833;SDS011;3962;42.696;23.354;2022-12-29T04:28:04;32.97;;;19.33;;
7833;SDS011;3962;42.696;23.354;2022-12-29T04:30:32;36.57;;;21.50;;
7833;SDS011;3962;42.696;23.354;2022-12-29T04:33:00;30.07;;;18.90;;
7833;SDS011;3962;42.696;23.354;2022-12-29T04:35:26;29.77;;;19.13;;
7833;SDS011;3962;42.696;23.354;2022-12-29T04:37:53;32.53;;;19.17;;
7833;SDS011;3962;42.696;23.354;2022-12-29T04:40:21;32.50;;;18.13;;
7833;SDS011;3962;42.696;23.354;2022-12-29T04:42:49;29.10;;;17.60;;
7833;SDS011;3962;42.696;23.354;2022-12-29T04:45:16;23.87;;;16.17;;
7833;SDS011;3962;42.696;23.354;2022-12-29T04:47:43;23.13;;;16.13;;
7833;SDS011;3962;42.696;23.354;2022-12-29T04:50:10;25.67;;;16.87;;
7833;SDS011;3962;42.696;23.354;2022-12-29T04:52:37;24.97;;;16.50;;
7833;SDS011;3962;42.696;23.354;2022-12-29T04:55:04;28.07;;;16.47;;
7833;SDS011;3962;42.696;23.354;2022-12-29T04:57:33;24.60;;;16.33;;
7833;SDS011;3962;42.696;23.354;2022-12-29T05:00:00;23.10;;;15.77;;
7833;SDS011;3962;42.696;23.354;2022-12-29T05:02:27;23.13;;;14.87;;
7833;SDS011;3962;42.696;23.354;2022-12-29T05:04:53;24.27;;;15.47;;
7833;SDS011;3962;42.696;23.354;2022-12-29T05:07:20;21.90;;;15.60;;
7833;SDS011;3962;42.696;23.354;2022-12-29T05:09:47;22.40;;;14.77;;
7833;SDS011;3962;42.696;23.354;2022-12-29T05:12:14;22.13;;;15.50;;
7833;SDS011;3962;42.696;23.354;2022-12-29T05:14:42;23.93;;;15.17;;
7833;SDS011;3962;42.696;23.354;2022-12-29T05:17:09;21.97;;;14.27;;
7833;SDS011;3962;42.696;23.354;2022-12-29T05:19:35;22.07;;;14.70;;
7833;SDS011;3962;42.696;23.354;2022-12-29T05:22:03;21.00;;;14.50;;
7833;SDS011;3962;42.696;23.354;2022-12-29T05:24:30;24.00;;;14.90;;
7833;SDS011;3962;42.696;23.354;2022-12-29T05:26:57;31.23;;;16.37;;
7833;SDS011;3962;42.696;23.354;2022-12-29T05:29:23;22.37;;;13.73;;
7833;SDS011;3962;42.696;23.354;2022-12-29T05:31:51;26.60;;;15.73;;
7833;SDS011;3962;42.696;23.354;2022-12-29T05:34:18;31.17;;;16.90;;
7833;SDS011;3962;42.696;23.354;2022-12-29T05:36:45;25.63;;;16.17;;
7833;SDS011;3962;42.696;23.354;2022-12-29T05:39:12;24.07;;;15.37;;
7833;SDS011;3962;42.696;23.354;2022-12-29T05:41:38;26.60;;;17.27;;
7833;SDS011;3962;42.696;23.354;2022-12-29T05:44:05;32.17;;;17.93;;
7833;SDS011;3962;42.696;23.354;2022-12-29T05:46:32;27.90;;;17.80;;
7833;SDS011;3962;42.696;23.354;2022-12-29T05:49:00;30.00;;;18.50;;
7833;SDS011;3962;42.696;23.354;2022-12-29T05:51:27;31.70;;;17.90;;
7833;SDS011;3962;42.696;23.354;2022-12-29T05:53:54;30.73;;;17.93;;
7833;SDS011;3962;42.696;23.354;2022-12-29T05:56:21;37.27;;;21.07;;
7833;SDS011;3962;42.696;23.354;2022-12-29T05:58:47;32.43;;;19.87;;
7833;SDS011;3962;42.696;23.354;2022-12-29T06:01:14;35.53;;;19.87;;
7833;SDS011;3962;42.696;23.354;2022-12-29T06:03:41;34.77;;;22.40;;
7833;SDS011;3962;42.696;23.354;2022-12-29T06:06:09;39.87;;;23.10;;
7833;SDS011;3962;42.696;23.354;2022-12-29T06:08:36;40.50;;;23.30;;
7833;SDS011;3962;42.696;23.354;2022-12-29T06:11:03;37.87;;;23.03;;
7833;SDS011;3962;42.696;23.354;2022-12-29T06:13:30;39.87;;;22.97;;
7833;SDS011;3962;42.696;23.354;2022-12-29T06:15:57;39.73;;;23.90;;
7833;SDS011;3962;42.696;23.354;2022-12-29T06:18:23;42.20;;;25.33;;
7833;SDS011;3962;42.696;23.354;2022-12-29T06:20:50;40.30;;;22.80;;
7833;SDS011;3962;42.696;23.354;2022-12-29T06:23:18;38.77;;;22.67;;
7833;SDS011;3962;42.696;23.354;2022-12-29T06:25:46;48.07;;;25.20;;
7833;SDS011;3962;42.696;23.354;2022-12-29T06:28:13;38.57;;;20.60;;
7833;SDS011;3962;42.696;23.354;2022-12-29T06:30:42;51.50;;;25.33;;
7833;SDS011;3962;42.696;23.354;2022-12-29T06:33:09;37.83;;;23.80;;
7833;SDS011;3962;42.696;23.354;2022-12-29T06:35:36;41.60;;;24.07;;
7833;SDS011;3962;42.696;23.354;2022-12-29T06:38:03;44.10;;;26.30;;
7833;SDS011;3962;42.696;23.354;2022-12-29T06:40:32;48.37;;;25.47;;
7833;SDS011;3962;42.696;23.354;2022-12-29T06:42:58;42.50;;;26.57;;
7833;SDS011;3962;42.696;23.354;2022-12-29T06:45:25;49.20;;;26.47;;
7833;SDS011;3962;42.696;23.354;2022-12-29T06:47:52;48.63;;;26.20;;
7833;SDS011;3962;42.696;23.354;2022-12-29T06:50:19;43.13;;;24.10;;
7833;SDS011;3962;42.696;23.354;2022-12-29T06:52:46;46.73;;;25.23;;
7833;SDS011;3962;42.696;23.354;2022-12-29T06:55:13;44.23;;;23.97;;
7833;SDS011;3962;42.696;23.354;2022-12-29T06:57:41;38.53;;;23.40;;
7833;SDS011;3962;42.696;23.354;2022-12-29T07:00:08;40.80;;;23.30;;
7833;SDS011;3962;42.696;23.354;2022-12-29T07:02:35;40.60;;;23.90;;
7833;SDS011;3962;42.696;23.354;2022-12-29T07:05:02;40.43;;;24.07;;
7833;SDS011;3962;42.696;23.354;2022-12-29T07:07:29;43.37;;;24.47;;
7833;SDS011;3962;42.696;23.354;2022-12-29T07:09:56;39.43;;;23.93;;
7833;SDS011;3962;42.696;23.354;2022-12-29T07:12:23;45.13;;;24.07;;
7833;SDS011;3962;42.696;23.354;2022-12-29T07:14:51;39.70;;;23.47;;
7833;SDS011;3962;42.696;23.354;2022-12-29T07:17:18;41.60;;;24.73;;
7833;SDS011;3962;42.696;23.354;2022-12-29T07:19:45;43.77;;;23.57;;
7833;SDS011;3962;42.696;23.354;2022-12-29T07:22:12;43.03;;;22.40;;
7833;SDS011;3962;42.696;23.354;2022-12-29T07:24:39;41.10;;;23.23;;
7833;SDS011;3962;42.696;23.354;2022-12-29T07:27:05;37.73;;;21.90;;
7833;SDS011;3962;42.696;23.354;2022-12-29T07:29:32;39.17;;;21.60;;
7833;SDS011;3962;42.696;23.354;2022-12-29T07:32:00;41.40;;;22.13;;
7833;SDS011;3962;42.696;23.354;2022-12-29T07:34:27;33.23;;;20.73;;
7833;SDS011;3962;42.696;23.354;2022-12-29T07:36:54;36.60;;;20.63;;
7833;SDS011;3962;42.696;23.354;2022-12-29T07:39:21;35.80;;;20.50;;
7833;SDS011;3962;42.696;23.354;2022-12-29T07:41:48;37.90;;;20.70;;
7833;SDS011;3962;42.696;23.354;2022-12-29T07:44:15;35.43;;;21.27;;
7833;SDS011;3962;42.696;23.354;2022-12-29T07:46:42;38.47;;;21.80;;
7833;SDS011;3962;42.696;23.354;2022-12-29T07:49:10;37.97;;;21.87;;
7833;SDS011;3962;42.696;23.354;2022-12-29T07:51:37;38.20;;;21.67;;
7833;SDS011;3962;42.696;23.354;2022-12-29T07:54:04;38.90;;;22.30;;
7833;SDS011;3962;42.696;23.354;2022-12-29T07:56:31;34.20;;;21.33;;
7833;SDS011;3962;42.696;23.354;2022-12-29T07:58:57;36.47;;;23.33;;
7833;SDS011;3962;42.696;23.354;2022-12-29T08:01:24;31.73;;;20.60;;
7833;SDS011;3962;42.696;23.354;2022-12-29T08:03:51;34.83;;;20.03;;
7833;SDS011;3962;42.696;23.354;2022-12-29T08:06:19;32.60;;;19.87;;
7833;SDS011;3962;42.696;23.354;2022-12-29T08:08:46;37.77;;;20.83;;
7833;SDS011;3962;42.696;23.354;2022-12-29T08:11:13;32.30;;;19.80;;
7833;SDS011;3962;42.696;23.354;2022-12-29T08:13:40;30.40;;;18.50;;
7833;SDS011;3962;42.696;23.354;2022-12-29T08:16:07;27.17;;;16.73;;
7833;SDS011;3962;42.696;23.354;2022-12-29T08:18:33;25.67;;;17.20;;
7833;SDS011;3962;42.696;23.354;2022-12-29T08:21:01;24.70;;;15.20;;
7833;SDS011;3962;42.696;23.354;2022-12-29T08:23:30;27.83;;;17.03;;
7833;SDS011;3962;42.696;23.354;2022-12-29T08:25:57;24.97;;;15.70;;
7833;SDS011;3962;42.696;23.354;2022-12-29T08:28:24;22.97;;;15.53;;
7833;SDS011;3962;42.696;23.354;2022-12-29T08:30:51;24.13;;;14.57;;
7833;SDS011;3962;42.696;23.354;2022-12-29T08:33:18;32.23;;;16.60;;
7833;SDS011;3962;42.696;23.354;2022-12-29T08:35:45;22.40;;;15.13;;
7833;SDS011;3962;42.696;23.354;2022-12-29T08:38:12;26.27;;;15.90;;
7833;SDS011;3962;42.696;23.354;2022-12-29T08:40:40;36.17;;;16.23;;
7833;SDS011;3962;42.696;23.354;2022-12-29T08:43:07;25.30;;;15.93;;
7833;SDS011;3962;42.696;23.354;2022-12-29T08:45:34;26.20;;;16.43;;
7833;SDS011;3962;42.696;23.354;2022-12-29T08:48:04;25.73;;;16.40;;
7833;SDS011;3962;42.696;23.354;2022-12-29T08:50:31;25.23;;;16.03;;
7833;SDS011;3962;42.696;23.354;2022-12-29T08:52:58;24.97;;;16.50;;
7833;SDS011;3962;42.696;23.354;2022-12-29T08:55:24;28.07;;;16.60;;
7833;SDS011;3962;42.696;23.354;2022-12-29T08:57:53;28.47;;;18.10;;
7833;SDS011;3962;42.696;23.354;2022-12-29T09:00:20;27.10;;;16.60;;
7833;SDS011;3962;42.696;23.354;2022-12-29T09:02:47;25.97;;;16.20;;
7833;SDS011;3962;42.696;23.354;2022-12-29T09:05:13;29.00;;;17.10;;
7833;SDS011;3962;42.696;23.354;2022-12-29T09:07:40;27.57;;;16.67;;
7833;SDS011;3962;42.696;23.354;2022-12-29T09:10:07;22.87;;;15.80;;
7833;SDS011;3962;42.696;23.354;2022-12-29T09:12:34;26.77;;;16.87;;
7833;SDS011;3962;42.696;23.354;2022-12-29T09:15:03;28.83;;;16.40;;
7833;SDS011;3962;42.696;23.354;2022-12-29T09:17:30;28.00;;;17.10;;
7833;SDS011;3962;42.696;23.354;2022-12-29T09:20:10;28.47;;;16.33;;
7833;SDS011;3962;42.696;23.354;2022-12-29T09:22:38;28.07;;;16.57;;
7833;SDS011;3962;42.696;23.354;2022-12-29T09:25:05;30.80;;;17.87;;
7833;SDS011;3962;42.696;23.354;2022-12-29T09:27:32;28.88;;;17.60;;
7833;SDS011;3962;42.696;23.354;2022-12-29T09:29:59;28.23;;;17.57;;
7833;SDS011;3962;42.696;23.354;2022-12-29T09:32:27;27.30;;;17.03;;
7833;SDS011;3962;42.696;23.354;2022-12-29T09:34:54;32.30;;;17.50;;
7833;SDS011;3962;42.696;23.354;2022-12-29T09:37:21;28.47;;;16.63;;
7833;SDS011;3962;42.696;23.354;2022-12-29T09:39:48;25.53;;;16.70;;
7833;SDS011;3962;42.696;23.354;2022-12-29T09:42:16;26.03;;;16.57;;
7833;SDS011;3962;42.696;23.354;2022-12-29T09:44:52;27.60;;;17.03;;
7833;SDS011;3962;42.696;23.354;2022-12-29T09:47:27;27.77;;;17.07;;
7833;SDS011;3962;42.696;23.354;2022-12-29T09:49:58;28.30;;;17.10;;
7833;SDS011;3962;42.696;23.354;2022-12-29T09:52:31;29.93;;;18.63;;
7833;SDS011;3962;42.696;23.354;2022-12-29T09:55:02;29.33;;;18.00;;
7833;SDS011;3962;42.696;23.354;2022-12-29T09:57:32;29.27;;;18.00;;
7833;SDS011;3962;42.696;23.354;2022-12-29T10:00:05;34.67;;;19.77;;
7833;SDS011;3962;42.696;23.354;2022-12-29T10:02:39;29.93;;;18.83;;
7833;SDS011;3962;42.696;23.354;2022-12-29T10:05:13;28.47;;;18.07;;
7833;SDS011;3962;42.696;23.354;2022-12-29T10:07:48;28.80;;;18.53;;
7833;SDS011;3962;42.696;23.354;2022-12-29T10:10:28;30.53;;;19.10;;
7833;SDS011;3962;42.696;23.354;2022-12-29T10:13:02;28.37;;;17.43;;
7833;SDS011;3962;42.696;23.354;2022-12-29T10:15:46;34.67;;;19.33;;
7833;SDS011;3962;42.696;23.354;2022-12-29T10:18:40;29.57;;;18.03;;
7833;SDS011;3962;42.696;23.354;2022-12-29T10:21:22;36.27;;;18.87;;
7833;SDS011;3962;42.696;23.354;2022-12-29T10:23:56;28.87;;;16.67;;
7833;SDS011;3962;42.696;23.354;2022-12-29T10:26:23;28.07;;;16.97;;
7833;SDS011;3962;42.696;23.354;2022-12-29T10:28:54;28.77;;;17.70;;
7833;SDS011;3962;42.696;23.354;2022-12-29T10:31:24;29.33;;;17.00;;
7833;SDS011;3962;42.696;23.354;2022-12-29T10:33:59;27.90;;;17.73;;
7833;SDS011;3962;42.696;23.354;2022-12-29T10:36:30;28.20;;;17.20;;
7833;SDS011;3962;42.696;23.354;2022-12-29T10:39:04;27.33;;;16.30;;
7833;SDS011;3962;42.696;23.354;2022-12-29T10:41:41;26.97;;;16.37;;
7833;SDS011;3962;42.696;23.354;2022-12-29T10:44:13;24.17;;;15.00;;
7833;SDS011;3962;42.696;23.354;2022-12-29T10:46:43;28.00;;;17.23;;
7833;SDS011;3962;42.696;23.354;2022-12-29T10:49:14;31.40;;;17.87;;
7833;SDS011;3962;42.696;23.354;2022-12-29T10:51:44;30.77;;;17.97;;
7833;SDS011;3962;42.696;23.354;2022-12-29T10:54:15;26.87;;;16.33;;
7833;SDS011;3962;42.696;23.354;2022-12-29T10:56:49;28.80;;;17.30;;
7833;SDS011;3962;42.696;23.354;2022-12-29T10:59:20;29.60;;;17.73;;
7833;SDS011;3962;42.696;23.354;2022-12-29T11:01:54;27.33;;;16.47;;
7833;SDS011;3962;42.696;23.354;2022-12-29T11:04:39;32.67;;;17.93;;
7833;SDS011;3962;42.696;23.354;2022-12-29T11:07:15;32.73;;;17.67;;
7833;SDS011;3962;42.696;23.354;2022-12-29T11:09:44;34.47;;;19.20;;
7833;SDS011;3962;42.696;23.354;2022-12-29T11:12:23;29.10;;;18.63;;
7833;SDS011;3962;42.696;23.354;2022-12-29T11:15:00;31.37;;;18.53;;
7833;SDS011;3962;42.696;23.354;2022-12-29T11:17:42;31.40;;;17.80;;
7833;SDS011;3962;42.696;23.354;2022-12-29T11:23:00;31.67;;;17.83;;
7833;SDS011;3962;42.696;23.354;2022-12-29T11:25:28;35.60;;;18.07;;
7833;SDS011;3962;42.696;23.354;2022-12-29T11:27:55;31.50;;;18.80;;
7833;SDS011;3962;42.696;23.354;2022-12-29T11:30:23;33.57;;;19.37;;
7833;SDS011;3962;42.696;23.354;2022-12-29T11:32:52;31.27;;;20.23;;
7833;SDS011;3962;42.696;23.354;2022-12-29T11:35:30;34.13;;;18.80;;
7833;SDS011;3962;42.696;23.354;2022-12-29T11:37:59;34.20;;;18.40;;
7833;SDS011;3962;42.696;23.354;2022-12-29T11:40:28;32.83;;;17.43;;
7833;SDS011;3962;42.696;23.354;2022-12-29T11:42:55;28.07;;;17.80;;
7833;SDS011;3962;42.696;23.354;2022-12-29T11:45:27;29.37;;;17.57;;
7833;SDS011;3962;42.696;23.354;2022-12-29T11:47:58;30.00;;;17.77;;
7833;SDS011;3962;42.696;23.354;2022-12-29T11:50:28;26.50;;;16.87;;
7833;SDS011;3962;42.696;23.354;2022-12-29T11:52:59;26.30;;;16.13;;
7833;SDS011;3962;42.696;23.354;2022-12-29T11:55:29;26.50;;;15.40;;
7833;SDS011;3962;42.696;23.354;2022-12-29T11:57:58;26.90;;;16.40;;
7833;SDS011;3962;42.696;23.354;2022-12-29T12:00:28;26.00;;;16.13;;
7833;SDS011;3962;42.696;23.354;2022-12-29T12:02:59;26.80;;;16.23;;
7833;SDS011;3962;42.696;23.354;2022-12-29T12:05:32;25.47;;;17.27;;
7833;SDS011;3962;42.696;23.354;2022-12-29T12:08:09;28.77;;;18.07;;
7833;SDS011;3962;42.696;23.354;2022-12-29T12:10:42;29.70;;;17.17;;
7833;SDS011;3962;42.696;23.354;2022-12-29T12:13:17;28.63;;;17.03;;
7833;SDS011;3962;42.696;23.354;2022-12-29T12:15:49;25.93;;;16.73;;
7833;SDS011;3962;42.696;23.354;2022-12-29T12:18:24;26.80;;;17.53;;
7833;SDS011;3962;42.696;23.354;2022-12-29T12:20:59;36.80;;;18.37;;
7833;SDS011;3962;42.696;23.354;2022-12-29T12:23:40;34.97;;;19.57;;
7833;SDS011;3962;42.696;23.354;2022-12-29T12:26:18;29.20;;;17.50;;
7833;SDS011;3962;42.696;23.354;2022-12-29T12:28:49;30.17;;;17.93;;
7833;SDS011;3962;42.696;23.354;2022-12-29T12:31:23;29.07;;;16.33;;
7833;SDS011;3962;42.696;23.354;2022-12-29T12:34:01;28.20;;;16.63;;
7833;SDS011;3962;42.696;23.354;2022-12-29T12:36:43;29.70;;;17.43;;
7833;SDS011;3962;42.696;23.354;2022-12-29T12:39:22;31.53;;;16.77;;
7833;SDS011;3962;42.696;23.354;2022-12-29T12:41:56;29.97;;;17.20;;
7833;SDS011;3962;42.696;23.354;2022-12-29T12:44:37;28.97;;;17.17;;
7833;SDS011;3962;42.696;23.354;2022-12-29T12:47:24;30.57;;;18.27;;
7833;SDS011;3962;42.696;23.354;2022-12-29T12:50:14;27.13;;;17.07;;
7833;SDS011;3962;42.696;23.354;2022-12-29T12:53:03;27.23;;;17.43;;
7833;SDS011;3962;42.696;23.354;2022-12-29T12:55:47;32.57;;;17.50;;
7833;SDS011;3962;42.696;23.354;2022-12-29T12:58:25;32.57;;;18.57;;
7833;SDS011;3962;42.696;23.354;2022-12-29T13:01:02;33.63;;;18.63;;
7833;SDS011;3962;42.696;23.354;2022-12-29T13:03:49;36.20;;;22.67;;
7833;SDS011;3962;42.696;23.354;2022-12-29T13:06:27;29.80;;;17.47;;
7833;SDS011;3962;42.696;23.354;2022-12-29T13:09:16;25.47;;;17.80;;
7833;SDS011;3962;42.696;23.354;2022-12-29T13:11:59;27.50;;;16.50;;
7833;SDS011;3962;42.696;23.354;2022-12-29T13:14:39;26.80;;;17.43;;
7833;SDS011;3962;42.696;23.354;2022-12-29T13:17:15;25.87;;;16.83;;
7833;SDS011;3962;42.696;23.354;2022-12-29T13:19:53;26.03;;;15.97;;
7833;SDS011;3962;42.696;23.354;2022-12-29T13:22:29;26.50;;;16.80;;
7833;SDS011;3962;42.696;23.354;2022-12-29T13:25:07;29.47;;;17.20;;
7833;SDS011;3962;42.696;23.354;2022-12-29T13:27:48;29.10;;;17.90;;
7833;SDS011;3962;42.696;23.354;2022-12-29T13:30:20;34.70;;;20.40;;
7833;SDS011;3962;42.696;23.354;2022-12-29T13:32:53;33.77;;;20.00;;
7833;SDS011;3962;42.696;23.354;2022-12-29T13:35:33;27.03;;;17.67;;
7833;SDS011;3962;42.696;23.354;2022-12-29T13:38:11;33.70;;;19.67;;
7833;SDS011;3962;42.696;23.354;2022-12-29T13:40:44;34.53;;;19.47;;
7833;SDS011;3962;42.696;23.354;2022-12-29T13:43:15;35.20;;;18.90;;
7833;SDS011;3962;42.696;23.354;2022-12-29T13:45:42;32.10;;;18.17;;
7833;SDS011;3962;42.696;23.354;2022-12-29T13:48:14;35.67;;;21.40;;
7833;SDS011;3962;42.696;23.354;2022-12-29T13:50:44;67.50;;;35.23;;
7833;SDS011;3962;42.696;23.354;2022-12-29T13:53:18;48.00;;;28.50;;
7833;SDS011;3962;42.696;23.354;2022-12-29T13:55:54;51.23;;;29.37;;
7833;SDS011;3962;42.696;23.354;2022-12-29T13:58:33;57.23;;;29.53;;
7833;SDS011;3962;42.696;23.354;2022-12-29T14:01:07;43.83;;;24.13;;
7833;SDS011;3962;42.696;23.354;2022-12-29T14:03:44;42.33;;;20.57;;
7833;SDS011;3962;42.696;23.354;2022-12-29T14:06:15;33.43;;;19.83;;
7833;SDS011;3962;42.696;23.354;2022-12-29T14:08:49;37.87;;;18.63;;
7833;SDS011;3962;42.696;23.354;2022-12-29T14:11:20;30.30;;;17.53;;
7833;SDS011;3962;42.696;23.354;2022-12-29T14:13:51;33.17;;;18.47;;
7833;SDS011;3962;42.696;23.354;2022-12-29T14:19:12;29.90;;;18.43;;
7833;SDS011;3962;42.696;23.354;2022-12-29T14:21:49;34.10;;;18.43;;
7833;SDS011;3962;42.696;23.354;2022-12-29T14:33:15;31.57;;;19.13;;
7833;SDS011;3962;42.696;23.354;2022-12-29T14:35:42;37.10;;;19.80;;
7833;SDS011;3962;42.696;23.354;2022-12-29T14:38:15;36.73;;;20.33;;
7833;SDS011;3962;42.696;23.354;2022-12-29T14:40:45;34.57;;;20.33;;
7833;SDS011;3962;42.696;23.354;2022-12-29T14:43:13;38.07;;;20.77;;
7833;SDS011;3962;42.696;23.354;2022-12-29T14:45:51;35.77;;;20.77;;
7833;SDS011;3962;42.696;23.354;2022-12-29T14:48:29;36.80;;;20.63;;
7833;SDS011;3962;42.696;23.354;2022-12-29T14:50:59;34.83;;;20.83;;
7833;SDS011;3962;42.696;23.354;2022-12-29T14:53:43;35.27;;;20.87;;
7833;SDS011;3962;42.696;23.354;2022-12-29T14:56:13;35.77;;;21.07;;
7833;SDS011;3962;42.696;23.354;2022-12-29T14:58:44;36.53;;;20.80;;
7833;SDS011;3962;42.696;23.354;2022-12-29T15:01:22;39.40;;;20.97;;
7833;SDS011;3962;42.696;23.354;2022-12-29T15:03:53;39.03;;;22.13;;
7833;SDS011;3962;42.696;23.354;2022-12-29T15:06:23;37.73;;;22.53;;
7833;SDS011;3962;42.696;23.354;2022-12-29T15:08:53;38.87;;;21.93;;
7833;SDS011;3962;42.696;23.354;2022-12-29T15:11:29;40.37;;;22.13;;
7833;SDS011;3962;42.696;23.354;2022-12-29T15:17:10;35.27;;;21.00;;
7833;SDS011;3962;42.696;23.354;2022-12-29T15:19:48;39.60;;;23.10;;
7833;SDS011;3962;42.696;23.354;2022-12-29T15:22:15;37.80;;;22.63;;